sensor_id;sensor_type;location;lat;lon;timestamp;pressure;altitude;pressure_sealevel;temperature;humidity
30935;BME280;51033;42.648;23.292;2023-07-29T00:01:07;93755.63;;;20.78;43.40
30935;BME280;51033;42.648;23.292;2023-07-29T00:03:32;93753.34;;;20.83;42.87
30935;BME280;51033;42.648;23.292;2023-07-29T00:05:58;93759.53;;;20.84;42.75
30935;BME280;51033;42.648;23.292;2023-07-29T00:08:23;93757.13;;;20.68;43.02
30935;BME280;51033;42.648;23.292;2023-07-29T00:10:49;93764.47;;;20.68;42.95
30935;BME280;51033;42.648;23.292;2023-07-29T00:13:14;93763.63;;;20.56;43.07
30935;BME280;51033;42.648;23.292;2023-07-29T00:15:39;93774.81;;;20.55;43.08
30935;BME280;51033;42.648;23.292;2023-07-29T00:18:05;93747.72;;;20.44;43.25
30935;BME280;51033;42.648;23.292;2023-07-29T00:20:30;93771.75;;;20.60;43.04
30935;BME280;51033;42.648;23.292;2023-07-29T00:22:55;93761.66;;;20.53;43.09
30935;BME280;51033;42.648;23.292;2023-07-29T00:25:23;93752.41;;;20.47;43.12
30935;BME280;51033;42.648;23.292;2023-07-29T00:27:48;93761.66;;;20.50;43.07
30935;BME280;51033;42.648;23.292;2023-07-29T00:30:14;93755.81;;;20.44;42.84
30935;BME280;51033;42.648;23.292;2023-07-29T00:32:39;93746.94;;;20.40;43.11
30935;BME280;51033;42.648;23.292;2023-07-29T00:35:05;93752.34;;;20.40;42.93
30935;BME280;51033;42.648;23.292;2023-07-29T00:37:31;93751.53;;;20.36;43.26
30935;BME280;51033;42.648;23.292;2023-07-29T00:39:57;93754.25;;;20.40;42.97
30935;BME280;51033;42.648;23.292;2023-07-29T00:42:23;93744.59;;;20.39;42.92
30935;BME280;51033;42.648;23.292;2023-07-29T00:44:48;93762.78;;;20.45;42.79
30935;BME280;51033;42.648;23.292;2023-07-29T00:47:15;93757.75;;;20.44;43.03
30935;BME280;51033;42.648;23.292;2023-07-29T00:49:41;93750.75;;;20.36;42.96
30935;BME280;51033;42.648;23.292;2023-07-29T00:52:07;93736.84;;;20.30;43.03
30935;BME280;51033;42.648;23.292;2023-07-29T00:54:33;93747.97;;;20.25;42.98
30935;BME280;51033;42.648;23.292;2023-07-29T00:56:58;93754.59;;;20.31;43.08
30935;BME280;51033;42.648;23.292;2023-07-29T00:59:24;93717.00;;;20.08;43.36
30935;BME280;51033;42.648;23.292;2023-07-29T01:01:50;93741.38;;;20.19;43.40
30935;BME280;51033;42.648;23.292;2023-07-29T01:04:16;93745.63;;;20.20;43.10
30935;BME280;51033;42.648;23.292;2023-07-29T01:06:52;93751.34;;;20.11;43.31
30935;BME280;51033;42.648;23.292;2023-07-29T01:15:14;93742.00;;;20.02;43.71
30935;BME280;51033;42.648;23.292;2023-07-29T01:18:05;93732.00;;;20.06;43.64
30935;BME280;51033;42.648;23.292;2023-07-29T01:20:37;93737.38;;;19.99;43.71
30935;BME280;51033;42.648;23.292;2023-07-29T01:23:03;93722.56;;;19.79;44.14
30935;BME280;51033;42.648;23.292;2023-07-29T01:25:29;93746.88;;;19.86;44.43
30935;BME280;51033;42.648;23.292;2023-07-29T01:27:54;93749.53;;;19.79;44.64
30935;BME280;51033;42.648;23.292;2023-07-29T01:30:22;93745.63;;;19.76;44.77
30935;BME280;51033;42.648;23.292;2023-07-29T01:35:51;93751.78;;;19.69;44.66
30935;BME280;51033;42.648;23.292;2023-07-29T01:38:41;93735.03;;;19.53;45.08
30935;BME280;51033;42.648;23.292;2023-07-29T01:41:08;93743.19;;;19.60;44.81
30935;BME280;51033;42.648;23.292;2023-07-29T01:43:34;93746.28;;;19.59;45.03
30935;BME280;51033;42.648;23.292;2023-07-29T01:46:04;93750.13;;;19.61;44.48
30935;BME280;51033;42.648;23.292;2023-07-29T01:48:30;93735.44;;;19.55;44.77
30935;BME280;51033;42.648;23.292;2023-07-29T01:50:57;93744.78;;;19.65;44.68
30935;BME280;51033;42.648;23.292;2023-07-29T01:53:22;93726.91;;;19.50;44.45
30935;BME280;51033;42.648;23.292;2023-07-29T01:55:47;93741.66;;;19.59;44.63
30935;BME280;51033;42.648;23.292;2023-07-29T01:58:13;93745.81;;;19.53;44.80
30935;BME280;51033;42.648;23.292;2023-07-29T02:00:39;93719.50;;;19.43;44.52
30935;BME280;51033;42.648;23.292;2023-07-29T02:03:05;93740.34;;;19.46;44.79
30935;BME280;51033;42.648;23.292;2023-07-29T02:05:30;93746.13;;;19.45;44.86
30935;BME280;51033;42.648;23.292;2023-07-29T02:07:56;93733.97;;;19.28;45.24
30935;BME280;51033;42.648;23.292;2023-07-29T02:10:21;93727.44;;;19.29;45.03
30935;BME280;51033;42.648;23.292;2023-07-29T02:12:46;93739.81;;;19.33;45.12
30935;BME280;51033;42.648;23.292;2023-07-29T02:15:12;93731.31;;;19.31;45.23
30935;BME280;51033;42.648;23.292;2023-07-29T02:17:38;93733.94;;;19.24;45.59
30935;BME280;51033;42.648;23.292;2023-07-29T02:20:04;93747.56;;;19.39;46.15
30935;BME280;51033;42.648;23.292;2023-07-29T02:22:29;93752.50;;;19.29;45.77
30935;BME280;51033;42.648;23.292;2023-07-29T02:24:55;93748.88;;;19.15;46.20
30935;BME280;51033;42.648;23.292;2023-07-29T02:27:20;93753.19;;;19.23;45.73
30935;BME280;51033;42.648;23.292;2023-07-29T02:29:46;93756.53;;;19.13;45.94
30935;BME280;51033;42.648;23.292;2023-07-29T02:32:11;93754.94;;;19.08;46.10
30935;BME280;51033;42.648;23.292;2023-07-29T02:34:37;93755.31;;;19.07;46.13
30935;BME280;51033;42.648;23.292;2023-07-29T02:37:02;93754.50;;;19.03;46.32
30935;BME280;51033;42.648;23.292;2023-07-29T02:39:28;93757.31;;;19.13;45.89
30935;BME280;51033;42.648;23.292;2023-07-29T02:41:53;93747.50;;;18.98;46.18
30935;BME280;51033;42.648;23.292;2023-07-29T02:44:20;93754.16;;;19.08;46.13
30935;BME280;51033;42.648;23.292;2023-07-29T02:46:45;93732.53;;;19.01;45.85
30935;BME280;51033;42.648;23.292;2023-07-29T02:49:11;93743.72;;;19.03;45.62
30935;BME280;51033;42.648;23.292;2023-07-29T02:51:36;93739.47;;;19.02;45.99
30935;BME280;51033;42.648;23.292;2023-07-29T02:54:02;93747.97;;;19.04;46.43
30935;BME280;51033;42.648;23.292;2023-07-29T02:56:27;93751.13;;;19.13;46.13
30935;BME280;51033;42.648;23.292;2023-07-29T02:58:53;93733.66;;;19.00;46.07
30935;BME280;51033;42.648;23.292;2023-07-29T03:01:18;93752.22;;;19.05;46.11
30935;BME280;51033;42.648;23.292;2023-07-29T03:03:44;93758.41;;;19.09;46.28
30935;BME280;51033;42.648;23.292;2023-07-29T03:06:11;93757.19;;;19.03;46.31
30935;BME280;51033;42.648;23.292;2023-07-29T03:08:36;93754.31;;;18.88;46.27
30935;BME280;51033;42.648;23.292;2023-07-29T03:11:20;93759.31;;;18.86;46.77
30935;BME280;51033;42.648;23.292;2023-07-29T03:13:46;93770.50;;;18.88;46.90
30935;BME280;51033;42.648;23.292;2023-07-29T03:16:15;93768.53;;;18.85;46.74
30935;BME280;51033;42.648;23.292;2023-07-29T03:18:42;93774.59;;;18.79;47.21
30935;BME280;51033;42.648;23.292;2023-07-29T03:21:10;93768.13;;;18.83;47.05
30935;BME280;51033;42.648;23.292;2023-07-29T03:23:36;93764.75;;;18.90;46.89
30935;BME280;51033;42.648;23.292;2023-07-29T03:26:03;93768.94;;;18.87;46.72
30935;BME280;51033;42.648;23.292;2023-07-29T03:28:35;93770.00;;;18.79;47.02
30935;BME280;51033;42.648;23.292;2023-07-29T03:31:01;93765.66;;;18.71;47.24
30935;BME280;51033;42.648;23.292;2023-07-29T03:33:27;93770.00;;;18.79;47.20
30935;BME280;51033;42.648;23.292;2023-07-29T03:35:52;93757.13;;;18.69;47.32
30935;BME280;51033;42.648;23.292;2023-07-29T03:38:18;93769.16;;;18.75;47.41
30935;BME280;51033;42.648;23.292;2023-07-29T03:40:44;93759.75;;;18.62;47.79
30935;BME280;51033;42.648;23.292;2023-07-29T03:43:09;93753.50;;;18.58;47.79
30935;BME280;51033;42.648;23.292;2023-07-29T03:45:35;93763.66;;;18.68;47.93
30935;BME280;51033;42.648;23.292;2023-07-29T03:48:01;93765.50;;;18.61;48.07
30935;BME280;51033;42.648;23.292;2023-07-29T03:50:28;93766.25;;;18.61;48.67
30935;BME280;51033;42.648;23.292;2023-07-29T03:52:53;93772.03;;;18.63;48.63
30935;BME280;51033;42.648;23.292;2023-07-29T03:55:19;93741.06;;;18.46;48.63
30935;BME280;51033;42.648;23.292;2023-07-29T03:57:45;93755.81;;;18.56;48.98
30935;BME280;51033;42.648;23.292;2023-07-29T04:00:11;93765.84;;;18.59;48.98
30935;BME280;51033;42.648;23.292;2023-07-29T04:02:36;93765.84;;;18.59;49.16
30935;BME280;51033;42.648;23.292;2023-07-29T04:05:03;93744.63;;;18.54;49.03
30935;BME280;51033;42.648;23.292;2023-07-29T04:07:29;93757.47;;;18.68;48.56
30935;BME280;51033;42.648;23.292;2023-07-29T04:09:55;93761.88;;;18.76;48.00
30935;BME280;51033;42.648;23.292;2023-07-29T04:12:22;93764.56;;;18.76;47.58
30935;BME280;51033;42.648;23.292;2023-07-29T04:14:47;93778.69;;;18.96;47.41
30935;BME280;51033;42.648;23.292;2023-07-29T04:17:13;93774.84;;;18.97;47.52
30935;BME280;51033;42.648;23.292;2023-07-29T04:19:38;93774.84;;;18.97;47.79
30935;BME280;51033;42.648;23.292;2023-07-29T04:22:04;93777.69;;;19.11;47.59
30935;BME280;51033;42.648;23.292;2023-07-29T04:24:29;93775.00;;;19.11;47.58
30935;BME280;51033;42.648;23.292;2023-07-29T04:26:55;93774.94;;;19.07;47.85
30935;BME280;51033;42.648;23.292;2023-07-29T04:29:20;93777.78;;;19.18;47.74
30935;BME280;51033;42.648;23.292;2023-07-29T04:31:47;93761.13;;;19.09;47.84
30935;BME280;51033;42.648;23.292;2023-07-29T04:34:13;93759.19;;;19.09;47.58
30935;BME280;51033;42.648;23.292;2023-07-29T04:36:38;93780.63;;;19.32;47.29
30935;BME280;51033;42.648;23.292;2023-07-29T04:39:04;93783.81;;;19.41;46.15
30935;BME280;51033;42.648;23.292;2023-07-29T04:41:29;93791.59;;;19.46;46.71
30935;BME280;51033;42.648;23.292;2023-07-29T04:43:54;93779.34;;;19.52;46.40
30935;BME280;51033;42.648;23.292;2023-07-29T04:46:20;93774.69;;;19.49;46.60
30935;BME280;51033;42.648;23.292;2023-07-29T04:48:45;93782.56;;;19.65;46.06
30935;BME280;51033;42.648;23.292;2023-07-29T04:51:11;93777.09;;;19.61;45.54
30935;BME280;51033;42.648;23.292;2023-07-29T04:53:36;93784.09;;;19.66;45.88
30935;BME280;51033;42.648;23.292;2023-07-29T04:56:02;93791.81;;;19.67;45.59
30935;BME280;51033;42.648;23.292;2023-07-29T04:58:28;93785.97;;;19.62;45.95
30935;BME280;51033;42.648;23.292;2023-07-29T05:00:55;93795.72;;;19.70;45.96
30935;BME280;51033;42.648;23.292;2023-07-29T05:03:21;93791.94;;;19.82;45.88
30935;BME280;51033;42.648;23.292;2023-07-29T05:05:46;93747.72;;;19.49;45.32
30935;BME280;51033;42.648;23.292;2023-07-29T05:08:12;93791.84;;;19.71;46.35
30935;BME280;51033;42.648;23.292;2023-07-29T05:10:37;93810.03;;;19.78;47.00
30935;BME280;51033;42.648;23.292;2023-07-29T05:13:03;93795.78;;;19.81;46.13
30935;BME280;51033;42.648;23.292;2023-07-29T05:15:28;93792.75;;;19.86;45.38
30935;BME280;51033;42.648;23.292;2023-07-29T05:17:53;93792.41;;;19.87;45.55
30935;BME280;51033;42.648;23.292;2023-07-29T05:20:19;93813.78;;;20.06;45.83
30935;BME280;51033;42.648;23.292;2023-07-29T05:22:44;93796.53;;;19.78;44.71
30935;BME280;51033;42.648;23.292;2023-07-29T05:25:10;93811.38;;;19.94;44.96
30935;BME280;51033;42.648;23.292;2023-07-29T05:27:35;93811.81;;;20.03;45.56
30935;BME280;51033;42.648;23.292;2023-07-29T05:30:01;93811.50;;;20.08;45.09
30935;BME280;51033;42.648;23.292;2023-07-29T05:32:26;93808.81;;;20.12;45.00
30935;BME280;51033;42.648;23.292;2023-07-29T05:34:51;93810.84;;;20.22;45.12
30935;BME280;51033;42.648;23.292;2023-07-29T05:37:17;93802.41;;;20.27;45.62
30935;BME280;51033;42.648;23.292;2023-07-29T05:39:42;93801.22;;;20.25;45.41
30935;BME280;51033;42.648;23.292;2023-07-29T05:42:07;93808.53;;;20.24;44.67
30935;BME280;51033;42.648;23.292;2023-07-29T05:44:33;93818.72;;;20.41;45.02
30935;BME280;51033;42.648;23.292;2023-07-29T05:46:58;93823.78;;;20.50;45.11
30935;BME280;51033;42.648;23.292;2023-07-29T05:49:24;93808.81;;;20.59;44.36
30935;BME280;51033;42.648;23.292;2023-07-29T05:51:49;93812.72;;;20.66;44.85
30935;BME280;51033;42.648;23.292;2023-07-29T05:54:18;93817.06;;;20.81;44.28
30935;BME280;51033;42.648;23.292;2023-07-29T05:56:43;93825.25;;;20.91;44.18
30935;BME280;51033;42.648;23.292;2023-07-29T05:59:09;93813.66;;;20.91;44.06
30935;BME280;51033;42.648;23.292;2023-07-29T06:01:34;93816.84;;;21.11;44.00
30935;BME280;51033;42.648;23.292;2023-07-29T06:04:00;93834.69;;;21.26;42.64
30935;BME280;51033;42.648;23.292;2023-07-29T06:06:25;93807.19;;;21.13;43.54
30935;BME280;51033;42.648;23.292;2023-07-29T06:08:51;93816.94;;;21.28;43.27
30935;BME280;51033;42.648;23.292;2023-07-29T06:11:16;93819.63;;;21.28;43.88
30935;BME280;51033;42.648;23.292;2023-07-29T06:13:42;93822.38;;;21.35;44.11
30935;BME280;51033;42.648;23.292;2023-07-29T06:16:07;93818.94;;;21.53;43.64
30935;BME280;51033;42.648;23.292;2023-07-29T06:18:33;93807.75;;;21.54;43.45
30935;BME280;51033;42.648;23.292;2023-07-29T06:20:58;93807.44;;;21.70;42.87
30935;BME280;51033;42.648;23.292;2023-07-29T06:23:24;93814.81;;;21.80;42.60
30935;BME280;51033;42.648;23.292;2023-07-29T06:25:49;93814.41;;;21.74;41.86
30935;BME280;51033;42.648;23.292;2023-07-29T06:28:14;93802.81;;;21.84;41.81
30935;BME280;51033;42.648;23.292;2023-07-29T06:30:40;93804.00;;;22.01;41.00
30935;BME280;51033;42.648;23.292;2023-07-29T06:33:05;93792.00;;;21.99;41.90
30935;BME280;51033;42.648;23.292;2023-07-29T06:35:31;93795.47;;;21.92;42.67
30935;BME280;51033;42.648;23.292;2023-07-29T06:37:56;93782.34;;;21.98;42.35
30935;BME280;51033;42.648;23.292;2023-07-29T06:40:22;93790.84;;;22.21;42.25
30935;BME280;51033;42.648;23.292;2023-07-29T06:42:47;93770.72;;;22.11;42.33
30935;BME280;51033;42.648;23.292;2023-07-29T06:45:13;93790.13;;;22.27;41.91
30935;BME280;51033;42.648;23.292;2023-07-29T06:47:38;93795.53;;;22.52;40.79
30935;BME280;51033;42.648;23.292;2023-07-29T06:50:04;93788.91;;;22.60;39.79
30935;BME280;51033;42.648;23.292;2023-07-29T06:52:29;93785.44;;;22.56;40.35
30935;BME280;51033;42.648;23.292;2023-07-29T06:54:55;93788.13;;;22.60;40.95
30935;BME280;51033;42.648;23.292;2023-07-29T06:57:21;93791.63;;;22.64;40.84
30935;BME280;51033;42.648;23.292;2023-07-29T06:59:46;93764.13;;;22.65;39.80
30935;BME280;51033;42.648;23.292;2023-07-29T07:02:12;93780.75;;;22.85;39.76
30935;BME280;51033;42.648;23.292;2023-07-29T07:04:37;93798.56;;;22.97;38.92
30935;BME280;51033;42.648;23.292;2023-07-29T07:07:03;93791.59;;;22.85;39.19
30935;BME280;51033;42.648;23.292;2023-07-29T07:09:28;93797.03;;;22.89;38.73
30935;BME280;51033;42.648;23.292;2023-07-29T07:11:53;93779.22;;;22.77;38.91
30935;BME280;51033;42.648;23.292;2023-07-29T07:14:19;93786.16;;;22.78;38.78
30935;BME280;51033;42.648;23.292;2023-07-29T07:16:44;93785.41;;;22.81;39.11
30935;BME280;51033;42.648;23.292;2023-07-29T07:19:10;93786.53;;;22.84;39.20
30935;BME280;51033;42.648;23.292;2023-07-29T07:21:36;93779.22;;;22.91;39.61
30935;BME280;51033;42.648;23.292;2023-07-29T07:24:01;93789.66;;;22.96;38.63
30935;BME280;51033;42.648;23.292;2023-07-29T07:26:27;93779.56;;;22.93;39.13
30935;BME280;51033;42.648;23.292;2023-07-29T07:28:52;93783.03;;;23.04;39.09
30935;BME280;51033;42.648;23.292;2023-07-29T07:31:17;93787.31;;;23.05;38.86
30935;BME280;51033;42.648;23.292;2023-07-29T07:33:43;93775.69;;;23.01;39.26
30935;BME280;51033;42.648;23.292;2023-07-29T07:36:08;93772.94;;;23.08;39.72
30935;BME280;51033;42.648;23.292;2023-07-29T07:38:34;93781.41;;;23.32;39.17
30935;BME280;51033;42.648;23.292;2023-07-29T07:40:59;93772.81;;;23.37;38.89
30935;BME280;51033;42.648;23.292;2023-07-29T07:43:25;93760.44;;;23.32;39.39
30935;BME280;51033;42.648;23.292;2023-07-29T07:45:51;93775.13;;;23.45;37.71
30935;BME280;51033;42.648;23.292;2023-07-29T07:48:16;93781.69;;;23.48;38.99
30935;BME280;51033;42.648;23.292;2023-07-29T07:50:43;93775.91;;;23.42;39.00
30935;BME280;51033;42.648;23.292;2023-07-29T07:53:08;93783.59;;;23.62;37.45
30935;BME280;51033;42.648;23.292;2023-07-29T07:55:34;93785.91;;;23.63;38.68
30935;BME280;51033;42.648;23.292;2023-07-29T07:57:59;93785.91;;;23.63;38.60
30935;BME280;51033;42.648;23.292;2023-07-29T08:00:25;93787.00;;;23.73;38.55
30935;BME280;51033;42.648;23.292;2023-07-29T08:02:52;93785.78;;;23.84;38.34
30935;BME280;51033;42.648;23.292;2023-07-29T08:05:25;93781.50;;;23.90;37.77
30935;BME280;51033;42.648;23.292;2023-07-29T08:08:04;93784.53;;;23.99;37.94
30935;BME280;51033;42.648;23.292;2023-07-29T08:10:31;93788.47;;;23.88;37.23
30935;BME280;51033;42.648;23.292;2023-07-29T08:12:57;93781.94;;;23.78;37.22
30935;BME280;51033;42.648;23.292;2023-07-29T08:15:25;93790.50;;;23.73;37.83
30935;BME280;51033;42.648;23.292;2023-07-29T08:17:50;93787.03;;;23.69;38.37
30935;BME280;51033;42.648;23.292;2023-07-29T08:20:15;93796.25;;;23.89;37.20
30935;BME280;51033;42.648;23.292;2023-07-29T08:22:41;93797.41;;;23.88;37.01
30935;BME280;51033;42.648;23.292;2023-07-29T08:25:07;93786.19;;;23.83;36.59
30935;BME280;51033;42.648;23.292;2023-07-29T08:27:33;93789.25;;;23.88;36.81
30935;BME280;51033;42.648;23.292;2023-07-29T08:30:01;93782.19;;;23.98;37.17
30935;BME280;51033;42.648;23.292;2023-07-29T08:32:26;93788.81;;;23.97;35.55
30935;BME280;51033;42.648;23.292;2023-07-29T08:34:52;93780.34;;;23.88;35.66
30935;BME280;51033;42.648;23.292;2023-07-29T08:37:17;93785.31;;;24.00;36.63
30935;BME280;51033;42.648;23.292;2023-07-29T08:39:43;93777.91;;;24.04;36.72
30935;BME280;51033;42.648;23.292;2023-07-29T08:42:10;93767.84;;;23.97;35.94
30935;BME280;51033;42.648;23.292;2023-07-29T08:44:41;93779.44;;;24.01;36.45
30935;BME280;51033;42.648;23.292;2023-07-29T08:47:07;93781.91;;;23.85;36.57
30935;BME280;51033;42.648;23.292;2023-07-29T08:49:33;93771.63;;;24.11;35.25
30935;BME280;51033;42.648;23.292;2023-07-29T08:51:59;93775.41;;;24.27;34.61
30935;BME280;51033;42.648;23.292;2023-07-29T08:54:25;93762.56;;;24.31;35.01
30935;BME280;51033;42.648;23.292;2023-07-29T08:56:50;93769.03;;;24.44;34.50
30935;BME280;51033;42.648;23.292;2023-07-29T08:59:16;93753.19;;;24.36;33.33
30935;BME280;51033;42.648;23.292;2023-07-29T09:01:42;93758.28;;;24.34;33.89
30935;BME280;51033;42.648;23.292;2023-07-29T09:04:09;93760.56;;;24.39;33.29
30935;BME280;51033;42.648;23.292;2023-07-29T09:06:35;93759.75;;;24.42;32.38
30935;BME280;51033;42.648;23.292;2023-07-29T09:09:03;93764.75;;;24.47;32.70
30935;BME280;51033;42.648;23.292;2023-07-29T09:11:30;93760.56;;;24.39;31.49
30935;BME280;51033;42.648;23.292;2023-07-29T09:13:57;93753.59;;;24.38;32.21
30935;BME280;51033;42.648;23.292;2023-07-29T09:16:24;93760.19;;;24.37;32.77
30935;BME280;51033;42.648;23.292;2023-07-29T09:18:50;93755.13;;;24.39;33.74
30935;BME280;51033;42.648;23.292;2023-07-29T09:21:25;93753.28;;;24.29;32.03
30935;BME280;51033;42.648;23.292;2023-07-29T09:23:52;93747.78;;;24.36;32.31
30935;BME280;51033;42.648;23.292;2023-07-29T09:26:25;93756.59;;;24.47;34.72
30935;BME280;51033;42.648;23.292;2023-07-29T09:28:53;93749.16;;;24.55;33.41
30935;BME280;51033;42.648;23.292;2023-07-29T09:31:20;93754.63;;;24.51;33.59
30935;BME280;51033;42.648;23.292;2023-07-29T09:33:46;93747.94;;;24.59;33.45
30935;BME280;51033;42.648;23.292;2023-07-29T09:36:12;93746.31;;;24.65;33.16
30935;BME280;51033;42.648;23.292;2023-07-29T09:38:37;93736.22;;;24.66;32.55
30935;BME280;51033;42.648;23.292;2023-07-29T09:41:03;93739.34;;;24.64;33.20
30935;BME280;51033;42.648;23.292;2023-07-29T09:43:30;93740.16;;;24.61;32.66
30935;BME280;51033;42.648;23.292;2023-07-29T09:46:01;93727.72;;;24.60;32.68
30935;BME280;51033;42.648;23.292;2023-07-29T09:48:27;93737.00;;;24.66;31.94
30935;BME280;51033;42.648;23.292;2023-07-29T09:50:55;93731.44;;;24.80;32.80
30935;BME280;51033;42.648;23.292;2023-07-29T09:53:27;93736.66;;;24.98;32.86
30935;BME280;51033;42.648;23.292;2023-07-29T09:55:53;93723.88;;;24.95;32.14
30935;BME280;51033;42.648;23.292;2023-07-29T09:58:26;93731.97;;;25.02;32.22
30935;BME280;51033;42.648;23.292;2023-07-29T10:00:52;93717.78;;;24.88;32.18
30935;BME280;51033;42.648;23.292;2023-07-29T10:03:25;93716.94;;;24.91;31.90
30935;BME280;51033;42.648;23.292;2023-07-29T10:05:53;93722.91;;;25.12;31.69
30935;BME280;51033;42.648;23.292;2023-07-29T10:08:21;93720.78;;;25.27;32.94
30935;BME280;51033;42.648;23.292;2023-07-29T10:10:50;93702.84;;;25.33;32.29
30935;BME280;51033;42.648;23.292;2023-07-29T10:13:16;93708.28;;;25.33;31.15
30935;BME280;51033;42.648;23.292;2023-07-29T10:15:42;93715.53;;;25.43;31.56
30935;BME280;51033;42.648;23.292;2023-07-29T10:18:07;93718.97;;;25.47;31.07
30935;BME280;51033;42.648;23.292;2023-07-29T10:20:33;93707.47;;;25.63;30.11
30935;BME280;51033;42.648;23.292;2023-07-29T10:23:00;93701.41;;;25.79;31.35
30935;BME280;51033;42.648;23.292;2023-07-29T10:25:34;93694.34;;;25.81;32.00
30935;BME280;51033;42.648;23.292;2023-07-29T10:28:07;93675.22;;;25.61;31.13
30935;BME280;51033;42.648;23.292;2023-07-29T10:30:32;93682.72;;;25.81;31.75
30935;BME280;51033;42.648;23.292;2023-07-29T10:33:02;93683.47;;;25.81;31.32
30935;BME280;51033;42.648;23.292;2023-07-29T10:35:27;93674.81;;;25.90;30.25
30935;BME280;51033;42.648;23.292;2023-07-29T10:37:55;93686.25;;;26.04;31.48
30935;BME280;51033;42.648;23.292;2023-07-29T10:40:21;93680.31;;;26.09;30.59
30935;BME280;51033;42.648;23.292;2023-07-29T10:43:44;93682.28;;;26.09;29.33
30935;BME280;51033;42.648;23.292;2023-07-29T10:45:50;93675.34;;;26.04;29.88
30935;BME280;51033;42.648;23.292;2023-07-29T10:51:22;93684.06;;;26.19;28.67
30935;BME280;51033;42.648;23.292;2023-07-29T10:53:52;93664.13;;;26.22;30.44
30935;BME280;51033;42.648;23.292;2023-07-29T10:56:26;93663.28;;;26.25;30.83
30935;BME280;51033;42.648;23.292;2023-07-29T10:58:51;93656.44;;;26.17;28.97
30935;BME280;51033;42.648;23.292;2023-07-29T11:01:27;93659.53;;;26.19;28.95
30935;BME280;51033;42.648;23.292;2023-07-29T11:12:32;93659.88;;;26.21;27.30
30935;BME280;51033;42.648;23.292;2023-07-29T11:14:51;93639.31;;;26.17;27.12
30935;BME280;51033;42.648;23.292;2023-07-29T11:17:17;93642.91;;;26.33;28.83
30935;BME280;51033;42.648;23.292;2023-07-29T11:19:43;93646.97;;;26.45;27.36
30935;BME280;51033;42.648;23.292;2023-07-29T11:22:09;93646.09;;;26.51;28.13
30935;BME280;51033;42.648;23.292;2023-07-29T11:24:35;93651.97;;;26.50;28.16
30935;BME280;51033;42.648;23.292;2023-07-29T11:27:00;93634.25;;;26.38;26.09
30935;BME280;51033;42.648;23.292;2023-07-29T11:29:26;93638.44;;;26.43;26.80
30935;BME280;51033;42.648;23.292;2023-07-29T11:31:51;93650.00;;;26.50;27.81
30935;BME280;51033;42.648;23.292;2023-07-29T11:34:16;93647.25;;;26.54;27.52
30935;BME280;51033;42.648;23.292;2023-07-29T11:36:50;93644.53;;;26.74;26.72
30935;BME280;51033;42.648;23.292;2023-07-29T11:39:16;93627.44;;;26.70;26.05
30935;BME280;51033;42.648;23.292;2023-07-29T11:41:42;93637.31;;;26.83;27.44
30935;BME280;51033;42.648;23.292;2023-07-29T11:44:10;93634.13;;;26.85;25.91
30935;BME280;51033;42.648;23.292;2023-07-29T11:46:42;93634.34;;;26.94;26.52
30935;BME280;51033;42.648;23.292;2023-07-29T11:49:08;93627.19;;;27.00;29.61
30935;BME280;51033;42.648;23.292;2023-07-29T11:51:33;93625.91;;;27.08;30.20
30935;BME280;51033;42.648;23.292;2023-07-29T11:54:00;93602.63;;;27.00;26.17
30935;BME280;51033;42.648;23.292;2023-07-29T11:56:25;93624.88;;;27.18;26.14
30935;BME280;51033;42.648;23.292;2023-07-29T11:58:56;93620.28;;;27.15;25.96
30935;BME280;51033;42.648;23.292;2023-07-29T12:01:22;93620.13;;;27.22;26.52
30935;BME280;51033;42.648;23.292;2023-07-29T12:03:48;93619.63;;;27.27;25.34
30935;BME280;51033;42.648;23.292;2023-07-29T12:06:14;93614.81;;;27.15;26.54
30935;BME280;51033;42.648;23.292;2023-07-29T12:08:41;93618.53;;;27.05;25.32
30935;BME280;51033;42.648;23.292;2023-07-29T12:11:08;93598.34;;;27.03;26.22
30935;BME280;51033;42.648;23.292;2023-07-29T12:13:33;93608.59;;;27.15;25.95
30935;BME280;51033;42.648;23.292;2023-07-29T12:16:05;93608.28;;;27.29;25.97
30935;BME280;51033;42.648;23.292;2023-07-29T12:18:32;93610.41;;;27.37;25.66
30935;BME280;51033;42.648;23.292;2023-07-29T12:20:59;93600.34;;;27.34;25.32
30935;BME280;51033;42.648;23.292;2023-07-29T12:23:25;93609.16;;;27.42;26.02
30935;BME280;51033;42.648;23.292;2023-07-29T12:25:58;93605.16;;;27.47;26.32
30935;BME280;51033;42.648;23.292;2023-07-29T12:28:24;93603.59;;;27.29;24.41
30935;BME280;51033;42.648;23.292;2023-07-29T12:30:57;93585.91;;;27.18;24.78
30935;BME280;51033;42.648;23.292;2023-07-29T12:33:35;93598.22;;;27.26;25.19
30935;BME280;51033;42.648;23.292;2023-07-29T12:36:01;93579.75;;;27.14;25.52
30935;BME280;51033;42.648;23.292;2023-07-29T12:38:28;93594.13;;;27.34;25.18
30935;BME280;51033;42.648;23.292;2023-07-29T12:40:56;93594.03;;;27.37;25.52
30935;BME280;51033;42.648;23.292;2023-07-29T12:43:21;93588.91;;;27.39;25.67
30935;BME280;51033;42.648;23.292;2023-07-29T12:45:50;93591.41;;;27.50;26.61
30935;BME280;51033;42.648;23.292;2023-07-29T12:48:15;93582.53;;;27.78;25.77
30935;BME280;51033;42.648;23.292;2023-07-29T12:50:40;93587.22;;;27.94;24.73
30935;BME280;51033;42.648;23.292;2023-07-29T12:53:07;93579.91;;;27.91;25.08
30935;BME280;51033;42.648;23.292;2023-07-29T12:55:34;93590.28;;;27.96;24.96
30935;BME280;51033;42.648;23.292;2023-07-29T12:57:59;93585.53;;;28.00;23.87
30935;BME280;51033;42.648;23.292;2023-07-29T13:00:26;93595.09;;;27.92;23.76
30935;BME280;51033;42.648;23.292;2023-07-29T13:02:51;93583.66;;;27.81;24.68
30935;BME280;51033;42.648;23.292;2023-07-29T13:05:17;93590.38;;;27.93;24.52
30935;BME280;51033;42.648;23.292;2023-07-29T13:07:43;93584.59;;;27.74;23.89